Time;durP1;ratioP1;P1;durP2;ratioP2;P2;SDS_P1;SDS_P2;PMS_P1;PMS_P2;Temp;Humidity;BMP_temperature;BMP_pressure;BME280_temperature;BME280_humidity;BME280_pressure;Samples;Min_cycle;Max_cycle;Signal;HPM_P1;HPM_P2
2022/12/08 00:00:34;;;;;;;2.03;0.45;;;;;;;;;;5110250;28;20052;-72
2022/12/08 00:03:04;;;;;;;2.03;0.55;;;;;;;;;;5109711;28;20050;-74
2022/12/08 00:11:13;;;;;;;;;;;;;;;;;;5110476;28;20473;-76
2022/12/08 00:13:43;;;;;;;2.70;0.45;;;;;;;;;;5110386;28;19927;-74
2022/12/08 00:16:12;;;;;;;1.67;0.90;;;;;;;;;;5109580;28;20074;-74
2022/12/08 00:18:42;;;;;;;2.90;0.52;;;;;;;;;;5110037;28;20054;-74
2022/12/08 00:21:12;;;;;;;1.13;0.50;;;;;;;;;;5109289;28;20047;-74
2022/12/08 00:23:42;;;;;;;0.32;0.32;;;;;;;;;;5109800;28;20058;-73
2022/12/08 00:26:12;;;;;;;0.90;0.80;;;;;;;;;;5108589;28;20051;-73
2022/12/08 00:28:42;;;;;;;0.77;0.40;;;;;;;;;;5109068;28;20036;-74
2022/12/08 00:31:12;;;;;;;1.05;0.40;;;;;;;;;;5109009;28;20051;-75
2022/12/08 00:33:43;;;;;;;1.17;0.80;;;;;;;;;;5109273;28;20506;-73
2022/12/08 00:36:14;;;;;;;1.45;0.45;;;;;;;;;;5108319;28;20477;-73
2022/12/08 00:38:46;;;;;;;2.22;1.08;;;;;;;;;;5108944;28;20066;-73
2022/12/08 00:44:12;;;;;;;5.63;1.17;;;;;;;;;;5109465;28;20047;-74
2022/12/08 00:46:42;;;;;;;4.72;0.90;;;;;;;;;;5109145;28;20409;-73
2022/12/08 00:49:12;;;;;;;1.33;0.70;;;;;;;;;;5109028;28;20044;-74
2022/12/08 00:51:43;;;;;;;1.85;0.73;;;;;;;;;;5107410;28;20426;-73
2022/12/08 00:54:13;;;;;;;0.63;0.50;;;;;;;;;;5108626;28;20062;-72
2022/12/08 00:56:45;;;;;;;2.50;0.50;;;;;;;;;;5107206;28;20043;-74
2022/12/08 00:59:15;;;;;;;0.52;0.50;;;;;;;;;;5108845;28;20054;-74
2022/12/08 01:01:47;;;;;;;2.50;1.00;;;;;;;;;;5109038;27;20533;-74
2022/12/08 01:04:19;;;;;;;3.28;0.70;;;;;;;;;;5107947;28;20066;-73
2022/12/08 01:06:49;;;;;;;0.90;0.75;;;;;;;;;;5117682;27;20054;-73
2022/12/08 01:09:19;;;;;;;1.38;0.50;;;;;;;;;;5127364;27;20047;-73
2022/12/08 01:11:49;;;;;;;0.50;0.50;;;;;;;;;;5128380;27;20059;-74
2022/12/08 01:14:19;;;;;;;0.50;0.50;;;;;;;;;;5128326;27;20055;-74
2022/12/08 01:16:49;;;;;;;1.48;0.70;;;;;;;;;;5129501;27;20056;-73
2022/12/08 01:19:20;;;;;;;1.05;0.88;;;;;;;;;;5129155;27;20047;-73
2022/12/08 01:21:49;;;;;;;0.77;0.75;;;;;;;;;;5127713;27;20449;-73
2022/12/08 01:24:20;;;;;;;0.50;0.43;;;;;;;;;;5127726;27;20058;-77
2022/12/08 01:26:51;;;;;;;1.17;0.47;;;;;;;;;;5126993;27;20066;-73
2022/12/08 01:29:21;;;;;;;1.13;0.88;;;;;;;;;;5124932;27;20055;-74
2022/12/08 01:31:51;;;;;;;1.85;1.00;;;;;;;;;;5127025;27;20043;-74
2022/12/08 01:34:21;;;;;;;1.73;0.60;;;;;;;;;;5125042;27;20062;-73
2022/12/08 01:36:51;;;;;;;1.80;0.80;;;;;;;;;;5127109;27;20552;-74
2022/12/08 01:39:21;;;;;;;1.48;0.98;;;;;;;;;;5128432;27;20058;-73
2022/12/08 01:41:51;;;;;;;1.58;0.85;;;;;;;;;;5128635;27;20078;-73
2022/12/08 01:44:21;;;;;;;0.60;0.57;;;;;;;;;;5127917;27;20411;-73
2022/12/08 01:46:53;;;;;;;1.92;0.90;;;;;;;;;;5126155;27;20054;-73
2022/12/08 01:49:28;;;;;;;1.58;0.60;;;;;;;;;;5128431;27;20063;-73
2022/12/08 01:52:16;;;;;;;0.60;0.50;;;;;;;;;;5128189;27;20493;-73
2022/12/08 01:54:50;;;;;;;1.23;0.93;;;;;;;;;;5127218;27;20054;-72
2022/12/08 01:57:26;;;;;;;2.40;0.70;;;;;;;;;;5128358;27;20039;-72
2022/12/08 02:00:19;;;;;;;1.05;0.93;;;;;;;;;;5128095;27;20050;-72
2022/12/08 02:03:02;;;;;;;2.40;0.80;;;;;;;;;;5127014;27;20035;-73
2022/12/08 02:05:39;;;;;;;2.65;0.90;;;;;;;;;;5127889;27;20066;-73
2022/12/08 02:08:11;;;;;;;1.95;0.52;;;;;;;;;;5127866;27;20047;-73
2022/12/08 02:10:42;;;;;;;3.20;1.00;;;;;;;;;;5127730;27;20043;-73
2022/12/08 02:13:16;;;;;;;1.15;0.60;;;;;;;;;;5128001;27;20047;-73
2022/12/08 02:16:03;;;;;;;1.83;0.80;;;;;;;;;;5127811;27;20489;-73
2022/12/08 02:19:03;;;;;;;1.95;0.77;;;;;;;;;;5127826;27;20057;-73
2022/12/08 02:22:23;;;;;;;2.13;0.75;;;;;;;;;;5127495;27;20433;-74
2022/12/08 02:25:06;;;;;;;0.57;0.57;;;;;;;;;;5127606;27;20051;-74
2022/12/08 02:27:43;;;;;;;1.73;0.80;;;;;;;;;;5127383;27;20046;-74
2022/12/08 02:30:31;;;;;;;2.53;0.70;;;;;;;;;;5127545;27;20042;-73
2022/12/08 02:33:35;;;;;;;1.42;0.60;;;;;;;;;;5127342;27;20043;-73
2022/12/08 02:36:17;;;;;;;0.70;0.50;;;;;;;;;;5127166;27;20054;-74
2022/12/08 02:38:59;;;;;;;1.10;0.65;;;;;;;;;;5128234;27;20055;-73
2022/12/08 02:41:48;;;;;;;0.70;0.70;;;;;;;;;;5127642;27;20051;-73
2022/12/08 02:44:33;;;;;;;1.98;0.90;;;;;;;;;;5125599;27;20494;-73
2022/12/08 02:47:03;;;;;;;1.02;0.70;;;;;;;;;;5127233;27;20046;-73
2022/12/08 02:49:34;;;;;;;0.80;0.80;;;;;;;;;;5125376;27;20044;-73
2022/12/08 02:52:28;;;;;;;1.48;0.52;;;;;;;;;;5127510;27;20423;-73
2022/12/08 02:55:00;;;;;;;1.42;0.70;;;;;;;;;;5126951;27;20074;-72
2022/12/08 02:57:51;;;;;;;2.38;0.60;;;;;;;;;;5127231;27;20050;-73
2022/12/08 03:00:24;;;;;;;2.05;0.50;;;;;;;;;;5127331;27;20043;-72
2022/12/08 03:03:08;;;;;;;1.25;0.50;;;;;;;;;;5126037;27;20399;-74
2022/12/08 03:06:04;;;;;;;0.85;0.80;;;;;;;;;;5126854;28;20058;-73
2022/12/08 03:08:54;;;;;;;0.40;0.40;;;;;;;;;;5127471;28;20509;-74
2022/12/08 03:11:35;;;;;;;0.50;0.50;;;;;;;;;;5127254;28;20066;-73
2022/12/08 03:14:09;;;;;;;0.95;0.60;;;;;;;;;;5126883;28;20050;-73
2022/12/08 03:16:44;;;;;;;2.13;0.88;;;;;;;;;;5126651;27;20047;-74
2022/12/08 03:19:25;;;;;;;1.80;1.00;;;;;;;;;;5127192;28;20047;-73
2022/12/08 03:22:01;;;;;;;0.60;0.60;;;;;;;;;;5127017;28;20497;-73
2022/12/08 03:24:36;;;;;;;3.22;0.90;;;;;;;;;;5127008;28;20533;-73
2022/12/08 03:27:19;;;;;;;1.25;0.90;;;;;;;;;;5125312;28;20051;-73
2022/12/08 03:29:52;;;;;;;2.50;0.75;;;;;;;;;;5126669;28;20043;-73
2022/12/08 03:32:27;;;;;;;2.25;1.00;;;;;;;;;;5126968;28;20054;-74
2022/12/08 03:34:59;;;;;;;;;;;;;;;;;;5127993;28;20043;-73
2022/12/08 03:37:29;;;;;;;1.63;0.88;;;;;;;;;;5126860;28;19923;-74
2022/12/08 03:39:59;;;;;;;1.83;0.70;;;;;;;;;;5126753;28;20524;-73
2022/12/08 03:42:29;;;;;;;1.92;0.70;;;;;;;;;;5126210;28;20038;-74
2022/12/08 03:45:00;;;;;;;1.55;0.82;;;;;;;;;;5125850;27;20406;-74
2022/12/08 03:47:30;;;;;;;1.15;0.50;;;;;;;;;;5126942;28;20034;-74
2022/12/08 03:49:59;;;;;;;4.47;1.02;;;;;;;;;;5126464;28;20500;-73
2022/12/08 03:52:30;;;;;;;1.75;1.00;;;;;;;;;;5126685;28;20421;-73
2022/12/08 03:54:59;;;;;;;1.65;0.90;;;;;;;;;;5123869;28;20055;-73
2022/12/08 03:57:29;;;;;;;1.20;0.75;;;;;;;;;;5126237;28;20043;-74
2022/12/08 03:59:59;;;;;;;1.80;0.90;;;;;;;;;;5126885;28;20051;-73
2022/12/08 04:02:32;;;;;;;1.90;0.70;;;;;;;;;;5128056;27;20059;-73
2022/12/08 04:05:02;;;;;;;1.52;1.33;;;;;;;;;;5127100;28;20047;-73
2022/12/08 04:07:32;;;;;;;1.40;0.98;;;;;;;;;;5126320;28;20043;-73
2022/12/08 04:10:02;;;;;;;2.80;1.00;;;;;;;;;;5125172;28;20055;-73
2022/12/08 04:12:32;;;;;;;2.78;0.90;;;;;;;;;;5126391;28;20497;-73
2022/12/08 04:15:01;;;;;;;0.82;0.70;;;;;;;;;;5126835;27;20044;-72
2022/12/08 04:17:31;;;;;;;2.03;1.02;;;;;;;;;;5130150;27;20512;-73
2022/12/08 04:20:01;;;;;;;4.10;1.08;;;;;;;;;;5129564;27;20054;-73
2022/12/08 04:22:32;;;;;;;2.97;0.93;;;;;;;;;;5130215;27;20152;-72
2022/12/08 04:25:02;;;;;;;3.03;1.20;;;;;;;;;;5129748;27;20043;-72
2022/12/08 04:27:32;;;;;;;2.67;1.20;;;;;;;;;;5128585;27;20050;-73
2022/12/08 04:30:02;;;;;;;1.83;1.00;;;;;;;;;;5129789;27;20046;-73
2022/12/08 04:32:32;;;;;;;1.02;0.68;;;;;;;;;;5130261;27;20051;-74
2022/12/08 04:35:02;;;;;;;1.33;0.90;;;;;;;;;;5129619;27;20039;-73
2022/12/08 04:37:32;;;;;;;2.20;1.40;;;;;;;;;;5129682;27;20069;-74
2022/12/08 04:40:03;;;;;;;1.45;1.08;;;;;;;;;;5129983;27;20054;-73
2022/12/08 04:42:33;;;;;;;2.33;0.75;;;;;;;;;;5129364;27;20043;-73
2022/12/08 04:45:04;;;;;;;1.95;1.20;;;;;;;;;;5129325;27;20047;-73
2022/12/08 04:47:35;;;;;;;2.05;1.15;;;;;;;;;;5128624;27;20051;-73
2022/12/08 04:50:06;;;;;;;4.78;0.98;;;;;;;;;;5128431;27;20543;-73
2022/12/08 04:52:36;;;;;;;2.45;1.25;;;;;;;;;;5129611;27;20039;-73
2022/12/08 04:55:06;;;;;;;1.48;1.10;;;;;;;;;;5129557;27;20036;-73
2022/12/08 04:57:36;;;;;;;1.20;1.05;;;;;;;;;;5128997;27;20047;-72
2022/12/08 05:00:06;;;;;;;1.67;1.13;;;;;;;;;;5129826;27;20046;-73
2022/12/08 05:02:36;;;;;;;1.52;0.90;;;;;;;;;;5129680;27;20046;-72
2022/12/08 05:05:06;;;;;;;1.05;0.70;;;;;;;;;;5129209;27;20054;-74
2022/12/08 05:07:36;;;;;;;2.78;0.82;;;;;;;;;;5129049;27;20418;-73
2022/12/08 05:10:07;;;;;;;2.95;1.17;;;;;;;;;;5129057;27;20405;-73
2022/12/08 05:12:37;;;;;;;0.80;0.80;;;;;;;;;;5127770;27;20054;-73
2022/12/08 05:15:07;;;;;;;2.10;1.20;;;;;;;;;;5127763;27;20051;-73
2022/12/08 05:17:38;;;;;;;1.55;0.80;;;;;;;;;;5128833;27;20044;-73
2022/12/08 05:20:08;;;;;;;2.15;0.88;;;;;;;;;;5128944;27;20063;-72
2022/12/08 05:22:39;;;;;;;0.95;0.88;;;;;;;;;;5128677;27;20050;-73
2022/12/08 05:25:10;;;;;;;2.85;1.20;;;;;;;;;;5128706;27;20058;-73
2022/12/08 05:27:40;;;;;;;0.95;0.80;;;;;;;;;;5128835;27;20070;-73
2022/12/08 05:30:10;;;;;;;1.08;0.70;;;;;;;;;;5128897;27;20047;-73
2022/12/08 05:32:40;;;;;;;2.88;0.80;;;;;;;;;;5128484;27;20042;-73
2022/12/08 05:35:10;;;;;;;1.23;0.80;;;;;;;;;;5127211;27;20043;-72
2022/12/08 05:37:40;;;;;;;1.25;0.65;;;;;;;;;;5107958;28;20063;-73
2022/12/08 05:40:10;;;;;;;1.55;1.20;;;;;;;;;;5108100;28;20043;-73
2022/12/08 05:42:40;;;;;;;1.65;0.80;;;;;;;;;;5106591;28;20510;-72
2022/12/08 05:45:10;;;;;;;4.40;0.93;;;;;;;;;;5107424;28;20039;-73
2022/12/08 05:47:40;;;;;;;1.00;0.82;;;;;;;;;;5107609;28;20062;-73
2022/12/08 05:50:10;;;;;;;3.35;1.40;;;;;;;;;;5107699;28;20059;-73
2022/12/08 05:52:40;;;;;;;1.40;1.02;;;;;;;;;;5107471;28;20048;-72
2022/12/08 05:55:11;;;;;;;6.35;0.90;;;;;;;;;;5108343;28;20050;-73
2022/12/08 05:57:41;;;;;;;1.00;0.90;;;;;;;;;;5107490;28;20055;-72
2022/12/08 06:00:11;;;;;;;0.75;0.70;;;;;;;;;;5108168;28;20043;-73
2022/12/08 06:02:41;;;;;;;1.67;1.08;;;;;;;;;;5107810;28;20525;-72
2022/12/08 06:05:11;;;;;;;2.67;1.90;;;;;;;;;;5106008;28;20051;-72
2022/12/08 06:07:41;;;;;;;3.40;0.90;;;;;;;;;;5107370;28;20071;-72
2022/12/08 06:10:12;;;;;;;2.15;0.80;;;;;;;;;;5105865;28;20052;-72
2022/12/08 06:12:41;;;;;;;1.33;1.17;;;;;;;;;;5107379;28;20055;-72
2022/12/08 06:15:11;;;;;;;1.23;0.73;;;;;;;;;;5107228;28;20043;-72
2022/12/08 06:17:41;;;;;;;0.75;0.70;;;;;;;;;;5105853;28;20067;-72
2022/12/08 06:20:11;;;;;;;2.88;1.30;;;;;;;;;;5107234;28;20043;-72
2022/12/08 06:22:41;;;;;;;1.70;1.13;;;;;;;;;;5106583;28;20048;-72
2022/12/08 06:25:11;;;;;;;2.22;1.30;;;;;;;;;;5106913;28;20044;-72
2022/12/08 06:27:40;;;;;;;1.23;1.10;;;;;;;;;;5106992;28;20744;-72
2022/12/08 06:30:10;;;;;;;1.90;1.08;;;;;;;;;;5106550;28;20058;-72
2022/12/08 06:32:40;;;;;;;1.40;0.73;;;;;;;;;;5106954;28;20050;-73
2022/12/08 06:35:10;;;;;;;1.75;0.75;;;;;;;;;;5106206;28;20502;-73
2022/12/08 06:37:40;;;;;;;2.25;1.42;;;;;;;;;;5106125;28;20043;-73
2022/12/08 06:40:10;;;;;;;1.60;1.08;;;;;;;;;;5107363;28;20044;-73
2022/12/08 06:42:42;;;;;;;1.38;0.80;;;;;;;;;;5106868;28;20050;-73
2022/12/08 06:45:14;;;;;;;4.30;1.10;;;;;;;;;;5106172;28;20047;-73
2022/12/08 06:47:45;;;;;;;4.40;1.30;;;;;;;;;;5106861;28;20537;-73
2022/12/08 06:50:15;;;;;;;5.65;0.90;;;;;;;;;;5107184;28;20048;-72
2022/12/08 06:52:45;;;;;;;1.02;0.93;;;;;;;;;;5107173;28;20410;-73
2022/12/08 06:55:29;;;;;;;1.40;0.93;;;;;;;;;;5107106;28;20051;-73
2022/12/08 06:58:21;;;;;;;4.00;1.08;;;;;;;;;;5106152;28;20040;-72
2022/12/08 07:00:52;;;;;;;1.73;1.10;;;;;;;;;;5106916;28;20070;-72
2022/12/08 07:03:22;;;;;;;2.53;0.95;;;;;;;;;;5121574;28;20055;-72
2022/12/08 07:05:56;;;;;;;3.22;0.90;;;;;;;;;;5106548;28;20960;-73
2022/12/08 07:08:33;;;;;;;1.50;1.05;;;;;;;;;;5106285;28;20059;-73
2022/12/08 07:11:08;;;;;;;2.88;1.23;;;;;;;;;;5106637;28;20062;-72
2022/12/08 07:13:44;;;;;;;4.90;1.30;;;;;;;;;;5106557;28;20530;-72
2022/12/08 07:16:15;;;;;;;1.80;1.40;;;;;;;;;;5106608;28;20055;-73
2022/12/08 07:18:44;;;;;;;2.65;1.25;;;;;;;;;;5106968;28;20058;-72
2022/12/08 07:21:16;;;;;;;1.98;1.33;;;;;;;;;;5106308;28;20050;-72
2022/12/08 07:23:48;;;;;;;7.30;1.20;;;;;;;;;;5106119;28;20505;-72
2022/12/08 07:26:25;;;;;;;1.55;1.02;;;;;;;;;;5106169;28;20051;-72
2022/12/08 07:28:55;;;;;;;8.25;1.30;;;;;;;;;;5106282;28;20047;-72
2022/12/08 07:31:27;;;;;;;4.78;1.08;;;;;;;;;;5106066;28;20047;-73
2022/12/08 07:33:57;;;;;;;6.30;1.55;;;;;;;;;;5106307;28;20054;-72
2022/12/08 07:36:27;;;;;;;3.13;1.30;;;;;;;;;;5106132;28;20412;-72
2022/12/08 07:38:57;;;;;;;1.23;1.13;;;;;;;;;;5106313;28;20498;-73
2022/12/08 07:41:27;;;;;;;3.88;0.98;;;;;;;;;;5106116;28;20054;-72
2022/12/08 07:43:56;;;;;;;1.30;1.17;;;;;;;;;;5106309;28;20147;-72
2022/12/08 07:46:27;;;;;;;2.05;1.83;;;;;;;;;;5106353;28;20040;-72
2022/12/08 07:48:57;;;;;;;1.67;0.85;;;;;;;;;;5106732;28;20347;-72
2022/12/08 07:51:27;;;;;;;2.15;1.20;;;;;;;;;;5109811;28;20044;-72
2022/12/08 07:53:57;;;;;;;3.75;1.13;;;;;;;;;;5109873;28;20052;-72
2022/12/08 07:56:28;;;;;;;2.45;1.30;;;;;;;;;;5110265;28;20495;-72
2022/12/08 07:59:01;;;;;;;5.47;1.85;;;;;;;;;;5110089;28;20048;-73
2022/12/08 08:01:33;;;;;;;1.23;0.80;;;;;;;;;;5110209;28;20047;-72
2022/12/08 08:04:05;;;;;;;1.77;1.20;;;;;;;;;;5110535;28;20052;-72
2022/12/08 08:06:36;;;;;;;1.35;0.90;;;;;;;;;;5109602;28;20043;-72
2022/12/08 08:09:09;;;;;;;2.25;0.98;;;;;;;;;;5109765;28;20058;-73
2022/12/08 08:11:39;;;;;;;1.52;1.08;;;;;;;;;;5109620;28;20050;-73
2022/12/08 08:14:09;;;;;;;4.10;1.13;;;;;;;;;;5110260;28;20525;-72
2022/12/08 08:16:45;;;;;;;2.42;0.80;;;;;;;;;;5109414;28;20599;-73
2022/12/08 08:19:17;;;;;;;1.50;1.02;;;;;;;;;;5109370;28;20043;-73
2022/12/08 08:21:47;;;;;;;4.03;1.58;;;;;;;;;;5108986;28;20047;-72
2022/12/08 08:24:17;;;;;;;37.05;2.10;;;;;;;;;;5109283;28;20330;-72
2022/12/08 08:26:47;;;;;;;6.65;1.50;;;;;;;;;;5109665;28;20051;-72
2022/12/08 08:29:17;;;;;;;15.00;1.67;;;;;;;;;;5109627;28;20051;-72
2022/12/08 08:31:46;;;;;;;5.32;1.35;;;;;;;;;;5109746;28;20051;-72
2022/12/08 08:34:16;;;;;;;4.00;1.20;;;;;;;;;;5108016;27;20059;-72
2022/12/08 08:36:46;;;;;;;2.85;0.85;;;;;;;;;;5109093;28;20043;-72
2022/12/08 08:39:16;;;;;;;4.60;1.25;;;;;;;;;;5109403;28;20047;-72
2022/12/08 08:41:46;;;;;;;5.03;1.20;;;;;;;;;;5109804;28;20048;-72
2022/12/08 08:44:15;;;;;;;1.65;1.08;;;;;;;;;;5109342;28;20063;-72
2022/12/08 08:46:45;;;;;;;2.22;1.23;;;;;;;;;;5108216;28;20056;-73
2022/12/08 08:49:15;;;;;;;2.03;1.20;;;;;;;;;;5109150;28;20075;-72
2022/12/08 08:51:45;;;;;;;1.95;0.68;;;;;;;;;;5109026;28;20070;-80
2022/12/08 08:54:15;;;;;;;0.80;0.80;;;;;;;;;;5106531;28;21180;-72
2022/12/08 08:56:47;;;;;;;1.52;0.63;;;;;;;;;;5108320;28;20051;-72
2022/12/08 08:59:18;;;;;;;1.80;1.17;;;;;;;;;;5108209;28;20059;-73
2022/12/08 09:01:47;;;;;;;3.95;1.10;;;;;;;;;;5107541;28;20486;-73
2022/12/08 09:04:19;;;;;;;2.17;0.80;;;;;;;;;;5109020;28;20051;-73
2022/12/08 09:06:49;;;;;;;1.88;1.30;;;;;;;;;;5109061;28;20051;-72
2022/12/08 09:09:19;;;;;;;3.35;1.58;;;;;;;;;;5107360;28;20054;-72
2022/12/08 09:11:49;;;;;;;2.33;1.50;;;;;;;;;;5108703;28;20379;-72
2022/12/08 09:14:19;;;;;;;3.10;1.10;;;;;;;;;;5109001;28;20054;-72
2022/12/08 09:16:49;;;;;;;2.92;1.33;;;;;;;;;;5109145;28;20402;-73
2022/12/08 09:19:19;;;;;;;4.28;1.30;;;;;;;;;;5108909;28;20036;-73
2022/12/08 09:21:49;;;;;;;1.55;1.10;;;;;;;;;;5108222;28;20036;-76
2022/12/08 09:24:19;;;;;;;2.47;1.10;;;;;;;;;;5108359;28;20055;-72
2022/12/08 09:26:49;;;;;;;3.60;1.17;;;;;;;;;;5108260;28;20050;-73
2022/12/08 09:29:19;;;;;;;2.63;1.70;;;;;;;;;;5108003;28;20117;-73
2022/12/08 09:31:49;;;;;;;5.43;1.58;;;;;;;;;;5108122;28;20421;-72
2022/12/08 09:34:20;;;;;;;2.47;1.40;;;;;;;;;;5108072;28;20043;-75
2022/12/08 09:36:49;;;;;;;4.32;1.55;;;;;;;;;;5108868;28;20054;-72
2022/12/08 09:39:19;;;;;;;4.15;1.52;;;;;;;;;;5106943;28;20052;-76
2022/12/08 09:41:56;;;;;;;3.42;1.20;;;;;;;;;;5108775;28;20043;-72
2022/12/08 09:44:43;;;;;;;6.35;1.67;;;;;;;;;;5108547;28;20051;-73
2022/12/08 09:47:27;;;;;;;4.10;1.38;;;;;;;;;;5107837;28;20048;-73
2022/12/08 09:50:13;;;;;;;1.83;1.17;;;;;;;;;;5107457;28;20047;-72
2022/12/08 09:53:00;;;;;;;4.90;2.30;;;;;;;;;;5106812;28;20062;-73
2022/12/08 09:55:45;;;;;;;1.80;1.13;;;;;;;;;;5105941;28;20043;-72
2022/12/08 09:58:21;;;;;;;;;;;;;;;;;;5106252;28;20091;-73
2022/12/08 10:00:56;;;;;;;;;;;;;;;;;;5105604;28;19923;-73
2022/12/08 10:03:28;;;;;;;1.13;1.02;;;;;;;;;;5121466;27;19928;-72
2022/12/08 10:06:19;;;;;;;0.95;0.82;;;;;;;;;;5087644;28;20052;-73
2022/12/08 10:09:30;;;;;;;6.15;1.33;;;;;;;;;;5121683;27;20047;-73
2022/12/08 10:12:03;;;;;;;4.35;0.93;;;;;;;;;;5107127;28;20059;-72
2022/12/08 10:14:45;;;;;;;6.03;1.20;;;;;;;;;;5107497;28;20052;-73
2022/12/08 10:17:24;;;;;;;5.05;1.98;;;;;;;;;;5108670;28;20043;-73
2022/12/08 10:20:11;;;;;;;8.75;3.35;;;;;;;;;;5107706;28;20406;-73
2022/12/08 10:22:45;;;;;;;9.75;2.40;;;;;;;;;;5107058;28;20046;-73
2022/12/08 10:25:20;;;;;;;5.50;1.35;;;;;;;;;;5106938;28;20039;-73
2022/12/08 10:27:53;;;;;;;;;;;;;;;;;;5107418;28;20534;-78
2022/12/08 10:30:26;;;;;;;6.07;1.80;;;;;;;;;;5107037;28;19923;-73
2022/12/08 10:32:56;;;;;;;3.50;1.33;;;;;;;;;;5105376;28;20058;-72
2022/12/08 10:35:52;;;;;;;2.70;0.90;;;;;;;;;;5105696;28;20043;-76
2022/12/08 10:38:40;;;;;;;5.15;1.38;;;;;;;;;;5107055;28;20410;-73
2022/12/08 10:41:12;;;;;;;3.28;0.90;;;;;;;;;;5107090;28;20050;-73
2022/12/08 10:43:58;;;;;;;6.97;1.83;;;;;;;;;;5107201;28;20047;-77
2022/12/08 10:46:30;;;;;;;4.07;1.30;;;;;;;;;;5107040;28;20543;-74
2022/12/08 10:49:05;;;;;;;2.15;1.23;;;;;;;;;;5106797;28;20059;-76
2022/12/08 10:51:42;;;;;;;;;;;;;;;;;;5107240;28;20036;-76
2022/12/08 10:54:33;;;;;;;9.13;1.30;;;;;;;;;;5106997;28;19927;-74
2022/12/08 10:57:03;;;;;;;3.88;1.20;;;;;;;;;;5106241;28;20075;-75
2022/12/08 10:59:34;;;;;;;1.70;0.82;;;;;;;;;;5106614;28;20051;-75
2022/12/08 11:02:19;;;;;;;3.25;1.50;;;;;;;;;;5106171;28;20043;-75
2022/12/08 11:05:00;;;;;;;6.00;1.23;;;;;;;;;;5106969;28;20039;-75
2022/12/08 11:07:30;;;;;;;5.30;0.93;;;;;;;;;;5106789;28;20051;-75
2022/12/08 11:10:00;;;;;;;3.03;0.85;;;;;;;;;;5107442;28;20074;-74
2022/12/08 11:12:31;;;;;;;4.43;0.93;;;;;;;;;;5106334;28;20047;-75
2022/12/08 11:15:04;;;;;;;2.08;0.93;;;;;;;;;;5106905;28;20042;-74
2022/12/08 11:17:42;;;;;;;5.18;1.58;;;;;;;;;;5106457;28;20827;-74
2022/12/08 11:20:12;;;;;;;6.75;1.50;;;;;;;;;;5106639;28;20043;-76
2022/12/08 11:22:44;;;;;;;2.30;1.08;;;;;;;;;;5105983;28;20043;-73
2022/12/08 11:25:23;;;;;;;4.03;0.82;;;;;;;;;;5109463;28;20525;-76
2022/12/08 11:27:57;;;;;;;3.78;1.55;;;;;;;;;;5110562;28;20047;-75
2022/12/08 11:30:35;;;;;;;3.58;1.02;;;;;;;;;;5110200;28;20043;-75
2022/12/08 11:33:16;;;;;;;4.00;0.90;;;;;;;;;;5111130;28;20047;-77
2022/12/08 11:35:58;;;;;;;;;;;;;;;;;;5110432;28;20524;-74
2022/12/08 11:38:30;;;;;;;3.30;0.80;;;;;;;;;;5106965;28;19931;-74
2022/12/08 11:41:16;;;;;;;5.63;2.33;;;;;;;;;;5109559;28;20044;-75
2022/12/08 11:43:58;;;;;;;3.47;0.80;;;;;;;;;;5110204;28;20046;-74
2022/12/08 11:46:51;;;;;;;2.42;0.80;;;;;;;;;;5110305;28;20059;-75
2022/12/08 11:49:32;;;;;;;1.98;1.50;;;;;;;;;;5109971;28;20391;-74
2022/12/08 11:52:40;;;;;;;2.47;1.45;;;;;;;;;;5109914;28;20101;-74
2022/12/08 11:55:36;;;;;;;3.40;1.15;;;;;;;;;;5110385;28;20568;-74
2022/12/08 11:58:21;;;;;;;3.88;0.95;;;;;;;;;;5109662;28;20059;-75
2022/12/08 12:00:52;;;;;;;6.70;0.95;;;;;;;;;;5110251;28;20051;-75
2022/12/08 12:03:34;;;;;;;3.22;0.73;;;;;;;;;;5110420;28;20043;-75
2022/12/08 12:06:13;;;;;;;2.28;1.20;;;;;;;;;;5110467;28;20376;-75
2022/12/08 12:09:30;;;;;;;2.03;0.90;;;;;;;;;;5109944;28;20035;-74
2022/12/08 12:12:42;;;;;;;4.05;1.00;;;;;;;;;;5109723;28;20040;-76
2022/12/08 12:15:44;;;;;;;;;;;;;;;;;;5109999;28;20035;-76
2022/12/08 12:18:39;;;;;;;2.50;1.33;;;;;;;;;;5086751;27;19923;-77
2022/12/08 12:21:28;;;;;;;4.00;1.25;;;;;;;;;;5109673;28;20051;-81
2022/12/08 12:24:15;;;;;;;3.50;1.30;;;;;;;;;;5109785;28;20521;-75
2022/12/08 12:27:00;;;;;;;3.30;1.83;;;;;;;;;;5108864;28;20497;-74
2022/12/08 12:29:46;;;;;;;5.45;2.42;;;;;;;;;;5109487;28;20078;-75
2022/12/08 12:32:25;;;;;;;3.30;1.60;;;;;;;;;;5109786;28;20058;-74
2022/12/08 12:34:59;;;;;;;4.40;1.40;;;;;;;;;;5109264;28;20458;-75
2022/12/08 12:37:39;;;;;;;2.65;1.50;;;;;;;;;;5108140;28;20073;-74
2022/12/08 12:40:21;;;;;;;2.75;1.30;;;;;;;;;;5109055;28;20044;-74
2022/12/08 12:42:57;;;;;;;5.40;1.88;;;;;;;;;;5109058;28;20043;-74
2022/12/08 12:45:32;;;;;;;3.28;1.20;;;;;;;;;;5109229;28;20055;-74
2022/12/08 12:48:02;;;;;;;4.15;1.50;;;;;;;;;;5109047;28;20043;-74
2022/12/08 12:50:37;;;;;;;3.40;1.50;;;;;;;;;;5108650;28;20048;-76
2022/12/08 12:53:16;;;;;;;1.80;1.38;;;;;;;;;;5109072;28;20039;-76
2022/12/08 12:56:02;;;;;;;5.22;1.80;;;;;;;;;;5109046;28;20039;-77
2022/12/08 12:58:35;;;;;;;3.33;1.55;;;;;;;;;;5109245;28;20047;-74
2022/12/08 13:01:08;;;;;;;3.45;1.70;;;;;;;;;;5108889;28;20043;-74
2022/12/08 13:03:39;;;;;;;3.17;1.70;;;;;;;;;;5108657;28;20048;-75
2022/12/08 13:06:12;;;;;;;3.65;1.83;;;;;;;;;;5108949;28;20051;-74
2022/12/08 13:08:52;;;;;;;3.40;1.70;;;;;;;;;;5108253;28;20506;-74
2022/12/08 13:11:23;;;;;;;6.13;1.80;;;;;;;;;;5107138;28;20052;-71
2022/12/08 13:14:03;;;;;;;7.53;2.00;;;;;;;;;;5107063;28;20544;-72
2022/12/08 13:16:37;;;;;;;4.40;2.50;;;;;;;;;;5107700;28;20056;-72
2022/12/08 13:19:15;;;;;;;3.42;2.03;;;;;;;;;;5107945;28;20780;-77
2022/12/08 13:21:45;;;;;;;5.45;1.95;;;;;;;;;;5109084;28;20050;-72
2022/12/08 13:24:28;;;;;;;5.22;3.88;;;;;;;;;;5108584;28;20414;-73
2022/12/08 13:27:04;;;;;;;6.30;2.10;;;;;;;;;;5108841;28;20047;-72
2022/12/08 13:29:36;;;;;;;9.13;3.25;;;;;;;;;;5108530;28;20044;-72
2022/12/08 13:32:09;;;;;;;4.07;2.17;;;;;;;;;;5108276;28;20047;-73
2022/12/08 13:34:47;;;;;;;4.38;2.28;;;;;;;;;;5107273;28;20074;-72
2022/12/08 13:37:57;;;;;;;5.10;2.55;;;;;;;;;;5107619;28;20043;-74
2022/12/08 13:40:31;;;;;;;5.57;2.25;;;;;;;;;;5028435;28;20056;-76
2022/12/08 13:43:42;;;;;;;3.92;2.47;;;;;;;;;;5027796;28;20061;-76
2022/12/08 13:46:41;;;;;;;6.65;2.75;;;;;;;;;;5104524;28;20402;-73
2022/12/08 13:49:41;;;;;;;5.43;2.92;;;;;;;;;;5105662;28;20044;-73
2022/12/08 13:52:36;;;;;;;5.38;2.33;;;;;;;;;;5106792;28;20051;-73
2022/12/08 13:55:43;;;;;;;6.47;2.67;;;;;;;;;;5108712;28;20043;-75
2022/12/08 13:58:37;;;;;;;6.20;2.55;;;;;;;;;;5107846;28;20050;-72
2022/12/08 14:01:07;;;;;;;6.07;2.95;;;;;;;;;;5107483;28;20062;-73
2022/12/08 14:03:59;;;;;;;5.35;2.60;;;;;;;;;;5107469;28;20039;-73
2022/12/08 14:06:54;;;;;;;8.20;2.80;;;;;;;;;;5107587;28;20058;-73
2022/12/08 14:09:28;;;;;;;5.55;2.47;;;;;;;;;;5107272;28;20040;-72
2022/12/08 14:12:04;;;;;;;6.10;2.95;;;;;;;;;;5106360;28;20536;-72
2022/12/08 14:14:45;;;;;;;9.00;2.85;;;;;;;;;;5107248;28;20036;-72
2022/12/08 14:17:38;;;;;;;9.80;2.75;;;;;;;;;;5107391;28;20495;-73
2022/12/08 14:20:11;;;;;;;8.18;3.20;;;;;;;;;;5105608;28;20051;-73
2022/12/08 14:22:41;;;;;;;6.32;3.10;;;;;;;;;;5108478;28;20055;-73
2022/12/08 14:25:16;;;;;;;5.30;3.08;;;;;;;;;;5107056;28;20040;-73
2022/12/08 14:27:48;;;;;;;6.85;3.50;;;;;;;;;;5107145;28;20451;-75
2022/12/08 14:30:27;;;;;;;9.68;3.63;;;;;;;;;;5105637;28;20046;-74
2022/12/08 14:32:59;;;;;;;5.07;3.63;;;;;;;;;;5107187;28;20157;-73
2022/12/08 14:35:35;;;;;;;4.57;3.42;;;;;;;;;;5107090;28;20044;-73
2022/12/08 14:38:14;;;;;;;4.78;3.50;;;;;;;;;;5107554;28;20055;-76
2022/12/08 14:40:46;;;;;;;5.22;3.75;;;;;;;;;;5107363;28;20043;-74
2022/12/08 14:43:16;;;;;;;6.97;3.80;;;;;;;;;;5107318;28;20051;-73
2022/12/08 14:45:52;;;;;;;7.57;3.83;;;;;;;;;;5107051;28;20043;-73
2022/12/08 14:48:34;;;;;;;8.80;4.53;;;;;;;;;;5107213;28;20051;-74
2022/12/08 14:51:20;;;;;;;9.27;4.47;;;;;;;;;;5107592;28;20048;-73
2022/12/08 14:53:55;;;;;;;4.93;3.67;;;;;;;;;;5106790;28;20043;-73
2022/12/08 14:56:39;;;;;;;5.50;3.53;;;;;;;;;;5106935;28;20056;-77
2022/12/08 14:59:14;;;;;;;5.68;3.90;;;;;;;;;;5106957;28;20529;-73
2022/12/08 15:01:46;;;;;;;7.28;3.70;;;;;;;;;;5106829;28;20044;-73
2022/12/08 15:04:22;;;;;;;4.65;3.55;;;;;;;;;;5107065;28;20051;-73
2022/12/08 15:06:57;;;;;;;6.68;4.20;;;;;;;;;;5106026;28;20410;-74
2022/12/08 15:09:35;;;;;;;4.90;4.07;;;;;;;;;;5106424;28;20054;-72
2022/12/08 15:12:13;;;;;;;6.05;3.45;;;;;;;;;;5105226;28;20052;-74
2022/12/08 15:15:22;;;;;;;5.45;3.88;;;;;;;;;;5107159;28;20048;-72
2022/12/08 15:18:11;;;;;;;6.82;3.40;;;;;;;;;;5095124;28;20052;-73
2022/12/08 15:20:43;;;;;;;8.13;4.70;;;;;;;;;;5107295;28;20040;-74
2022/12/08 15:23:31;;;;;;;5.07;3.15;;;;;;;;;;5107525;28;20044;-74
2022/12/08 15:26:04;;;;;;;6.88;3.88;;;;;;;;;;5107150;28;20055;-74
2022/12/08 15:28:34;;;;;;;6.28;3.92;;;;;;;;;;5106662;28;20713;-77
2022/12/08 15:31:04;;;;;;;7.95;3.50;;;;;;;;;;5106371;28;20054;-73
2022/12/08 15:33:34;;;;;;;6.70;3.60;;;;;;;;;;5106834;28;20039;-72
2022/12/08 15:36:04;;;;;;;7.15;3.63;;;;;;;;;;5106710;28;20763;-74
2022/12/08 15:38:34;;;;;;;4.93;3.40;;;;;;;;;;5106471;28;20044;-74
2022/12/08 15:41:05;;;;;;;9.27;3.70;;;;;;;;;;5105966;28;20445;-74
2022/12/08 15:43:42;;;;;;;6.72;4.15;;;;;;;;;;5106014;28;20414;-73